Chassell, Michigan
Current Conditions -  °F | °C
As of 9:53 AM on Friday 31 Oct 2014 (Local Time) from KCMX Reporting Station
Overcast Overcast  
Wind Chill: 21°   Ceiling: 4000
Heat Index: 30°   Visibility: 10mi
Dew Point: 20°   Wind: 12mph
Humidity: 66%   Direction: 30°NNE
Pressure: 30.4"   Gusts: 21mph
Location:  47.03°N, 88.53°W
Report Text: KCMX 311353Z AUTO 03010G18KT 10SM OVC040 M01/M07 A3040 RMK AO2 SLP308 P0001 T10111067
Loading
Personal Weather Stations






























Interactive Weather Map
Tropical Storm Tracking
New forecast layout! Learn more

10-Day Weather Forecast

Advertisements
Track Severe Weather on mobile